sensor_id;sensor_type;location;lat;lon;timestamp;temperature;humidity
16515;DHT22;8370;52.556;7.970;2023-01-09T00:01:35;6.10;99.90
16515;DHT22;8370;52.556;7.970;2023-01-09T00:04:00;6.10;99.90
16515;DHT22;8370;52.556;7.970;2023-01-09T00:06:26;6.20;99.90
16515;DHT22;8370;52.556;7.970;2023-01-09T00:08:51;6.30;99.90
16515;DHT22;8370;52.556;7.970;2023-01-09T00:11:17;6.30;99.90
16515;DHT22;8370;52.556;7.970;2023-01-09T00:13:43;6.50;99.90
16515;DHT22;8370;52.556;7.970;2023-01-09T00:16:08;6.50;99.90
16515;DHT22;8370;52.556;7.970;2023-01-09T00:18:34;6.60;99.90
16515;DHT22;8370;52.556;7.970;2023-01-09T00:21:02;6.70;99.90
16515;DHT22;8370;52.556;7.970;2023-01-09T00:23:28;6.80;99.90
16515;DHT22;8370;52.556;7.970;2023-01-09T00:26:04;6.80;99.90
16515;DHT22;8370;52.556;7.970;2023-01-09T00:28:30;6.90;99.90
16515;DHT22;8370;52.556;7.970;2023-01-09T00:30:57;6.90;99.90
16515;DHT22;8370;52.556;7.970;2023-01-09T00:33:32;7.00;99.90
16515;DHT22;8370;52.556;7.970;2023-01-09T00:35:58;7.10;99.90
16515;DHT22;8370;52.556;7.970;2023-01-09T00:38:24;7.20;99.90
16515;DHT22;8370;52.556;7.970;2023-01-09T00:40:49;7.20;99.90
16515;DHT22;8370;52.556;7.970;2023-01-09T00:43:16;7.20;99.90
16515;DHT22;8370;52.556;7.970;2023-01-09T00:45:42;7.30;99.90
16515;DHT22;8370;52.556;7.970;2023-01-09T00:48:12;7.30;99.90
16515;DHT22;8370;52.556;7.970;2023-01-09T00:50:38;7.40;99.90
16515;DHT22;8370;52.556;7.970;2023-01-09T00:53:12;7.40;99.90
16515;DHT22;8370;52.556;7.970;2023-01-09T00:55:39;7.40;99.90
16515;DHT22;8370;52.556;7.970;2023-01-09T00:58:05;7.50;99.90
16515;DHT22;8370;52.556;7.970;2023-01-09T01:00:31;7.50;99.90
16515;DHT22;8370;52.556;7.970;2023-01-09T01:02:57;7.50;99.90
16515;DHT22;8370;52.556;7.970;2023-01-09T01:05:22;7.70;99.90
16515;DHT22;8370;52.556;7.970;2023-01-09T01:08:14;7.70;99.90
16515;DHT22;8370;52.556;7.970;2023-01-09T01:10:40;7.60;99.90
16515;DHT22;8370;52.556;7.970;2023-01-09T01:13:07;7.60;99.90
16515;DHT22;8370;52.556;7.970;2023-01-09T01:15:32;7.50;99.90
16515;DHT22;8370;52.556;7.970;2023-01-09T01:17:58;7.40;99.90
16515;DHT22;8370;52.556;7.970;2023-01-09T01:20:24;7.60;99.90
16515;DHT22;8370;52.556;7.970;2023-01-09T01:22:49;7.60;99.90
16515;DHT22;8370;52.556;7.970;2023-01-09T01:25:15;7.50;99.90
16515;DHT22;8370;52.556;7.970;2023-01-09T01:27:43;7.50;99.90
16515;DHT22;8370;52.556;7.970;2023-01-09T01:30:11;7.40;99.90
16515;DHT22;8370;52.556;7.970;2023-01-09T01:32:38;7.40;99.90
16515;DHT22;8370;52.556;7.970;2023-01-09T01:35:04;7.40;99.90
16515;DHT22;8370;52.556;7.970;2023-01-09T01:37:30;7.40;99.90
16515;DHT22;8370;52.556;7.970;2023-01-09T01:39:55;7.40;99.90
16515;DHT22;8370;52.556;7.970;2023-01-09T01:42:21;7.40;99.90
16515;DHT22;8370;52.556;7.970;2023-01-09T01:45:09;7.40;99.90
16515;DHT22;8370;52.556;7.970;2023-01-09T01:47:46;7.40;99.90
16515;DHT22;8370;52.556;7.970;2023-01-09T01:50:30;7.50;99.90
16515;DHT22;8370;52.556;7.970;2023-01-09T01:53:20;7.60;99.90
16515;DHT22;8370;52.556;7.970;2023-01-09T01:56:13;7.60;99.90
16515;DHT22;8370;52.556;7.970;2023-01-09T01:58:50;7.50;99.90
16515;DHT22;8370;52.556;7.970;2023-01-09T02:01:18;7.60;99.90
16515;DHT22;8370;52.556;7.970;2023-01-09T02:03:45;7.60;99.90
16515;DHT22;8370;52.556;7.970;2023-01-09T02:06:11;7.60;99.90
16515;DHT22;8370;52.556;7.970;2023-01-09T02:08:37;7.60;99.90
16515;DHT22;8370;52.556;7.970;2023-01-09T02:11:04;7.60;99.90
16515;DHT22;8370;52.556;7.970;2023-01-09T02:13:31;7.60;99.90
16515;DHT22;8370;52.556;7.970;2023-01-09T02:22:06;7.60;99.90
16515;DHT22;8370;52.556;7.970;2023-01-09T02:27:17;7.70;99.90
16515;DHT22;8370;52.556;7.970;2023-01-09T02:33:08;7.70;99.90
16515;DHT22;8370;52.556;7.970;2023-01-09T02:35:50;7.70;99.90
16515;DHT22;8370;52.556;7.970;2023-01-09T02:38:28;7.70;99.90
16515;DHT22;8370;52.556;7.970;2023-01-09T02:43:26;7.60;99.90
16515;DHT22;8370;52.556;7.970;2023-01-09T02:45:52;7.60;99.90
16515;DHT22;8370;52.556;7.970;2023-01-09T02:48:18;7.60;99.90
16515;DHT22;8370;52.556;7.970;2023-01-09T02:50:48;7.50;99.90
16515;DHT22;8370;52.556;7.970;2023-01-09T03:01:26;7.50;99.90
16515;DHT22;8370;52.556;7.970;2023-01-09T03:04:13;7.60;99.90
16515;DHT22;8370;52.556;7.970;2023-01-09T03:06:46;7.60;99.90
16515;DHT22;8370;52.556;7.970;2023-01-09T03:09:19;7.60;99.90
16515;DHT22;8370;52.556;7.970;2023-01-09T03:11:51;7.60;99.90
16515;DHT22;8370;52.556;7.970;2023-01-09T03:14:19;7.60;99.90
16515;DHT22;8370;52.556;7.970;2023-01-09T03:16:48;7.50;99.90
16515;DHT22;8370;52.556;7.970;2023-01-09T03:19:19;7.40;99.90
16515;DHT22;8370;52.556;7.970;2023-01-09T03:21:46;7.40;99.90
16515;DHT22;8370;52.556;7.970;2023-01-09T03:24:12;7.30;99.90
16515;DHT22;8370;52.556;7.970;2023-01-09T03:26:38;7.20;99.90
16515;DHT22;8370;52.556;7.970;2023-01-09T03:29:04;7.20;99.90
16515;DHT22;8370;52.556;7.970;2023-01-09T03:31:29;7.10;99.90
16515;DHT22;8370;52.556;7.970;2023-01-09T03:33:55;7.20;99.90
16515;DHT22;8370;52.556;7.970;2023-01-09T03:36:23;7.20;99.90
16515;DHT22;8370;52.556;7.970;2023-01-09T03:38:48;7.10;99.90
16515;DHT22;8370;52.556;7.970;2023-01-09T03:41:15;7.00;99.90
16515;DHT22;8370;52.556;7.970;2023-01-09T03:43:41;7.10;99.90
16515;DHT22;8370;52.556;7.970;2023-01-09T03:46:06;7.10;99.90
16515;DHT22;8370;52.556;7.970;2023-01-09T03:48:32;7.00;99.90
16515;DHT22;8370;52.556;7.970;2023-01-09T03:50:57;6.90;99.90
16515;DHT22;8370;52.556;7.970;2023-01-09T03:53:25;6.90;99.90
16515;DHT22;8370;52.556;7.970;2023-01-09T03:55:54;6.80;99.90
16515;DHT22;8370;52.556;7.970;2023-01-09T03:58:20;6.80;99.90
16515;DHT22;8370;52.556;7.970;2023-01-09T04:00:46;6.70;99.90
16515;DHT22;8370;52.556;7.970;2023-01-09T04:03:18;6.70;99.90
16515;DHT22;8370;52.556;7.970;2023-01-09T04:05:45;6.70;99.90
16515;DHT22;8370;52.556;7.970;2023-01-09T04:08:10;6.90;99.90
16515;DHT22;8370;52.556;7.970;2023-01-09T04:10:36;7.00;99.90
16515;DHT22;8370;52.556;7.970;2023-01-09T04:13:01;6.90;99.90
16515;DHT22;8370;52.556;7.970;2023-01-09T04:15:27;7.00;99.90
16515;DHT22;8370;52.556;7.970;2023-01-09T04:17:52;7.10;99.90
16515;DHT22;8370;52.556;7.970;2023-01-09T04:20:18;7.00;99.90
16515;DHT22;8370;52.556;7.970;2023-01-09T04:22:44;7.00;99.90
16515;DHT22;8370;52.556;7.970;2023-01-09T04:25:10;7.00;99.90
16515;DHT22;8370;52.556;7.970;2023-01-09T04:27:35;7.00;99.90
16515;DHT22;8370;52.556;7.970;2023-01-09T04:30:01;7.10;99.90
16515;DHT22;8370;52.556;7.970;2023-01-09T04:32:27;7.10;99.90
16515;DHT22;8370;52.556;7.970;2023-01-09T04:34:53;7.10;99.90
16515;DHT22;8370;52.556;7.970;2023-01-09T04:37:20;7.10;99.90
16515;DHT22;8370;52.556;7.970;2023-01-09T04:39:45;7.10;99.90
16515;DHT22;8370;52.556;7.970;2023-01-09T04:42:11;7.10;99.90
16515;DHT22;8370;52.556;7.970;2023-01-09T04:44:37;7.10;99.90
16515;DHT22;8370;52.556;7.970;2023-01-09T04:47:03;7.10;99.90
16515;DHT22;8370;52.556;7.970;2023-01-09T04:49:29;7.00;99.90
16515;DHT22;8370;52.556;7.970;2023-01-09T04:51:54;7.00;99.90
16515;DHT22;8370;52.556;7.970;2023-01-09T04:54:20;6.90;99.90
16515;DHT22;8370;52.556;7.970;2023-01-09T04:56:46;7.00;99.90
16515;DHT22;8370;52.556;7.970;2023-01-09T04:59:12;7.00;99.90
16515;DHT22;8370;52.556;7.970;2023-01-09T05:01:38;7.10;99.90
16515;DHT22;8370;52.556;7.970;2023-01-09T05:04:04;7.10;99.90
16515;DHT22;8370;52.556;7.970;2023-01-09T05:06:29;7.00;99.90
16515;DHT22;8370;52.556;7.970;2023-01-09T05:08:56;6.90;99.90
16515;DHT22;8370;52.556;7.970;2023-01-09T05:11:22;6.80;99.90
16515;DHT22;8370;52.556;7.970;2023-01-09T05:13:48;6.80;99.90
16515;DHT22;8370;52.556;7.970;2023-01-09T05:16:13;6.80;99.90
16515;DHT22;8370;52.556;7.970;2023-01-09T05:18:39;6.80;99.90
16515;DHT22;8370;52.556;7.970;2023-01-09T05:21:04;6.80;99.90
16515;DHT22;8370;52.556;7.970;2023-01-09T05:23:30;6.80;99.90
16515;DHT22;8370;52.556;7.970;2023-01-09T05:25:55;6.80;99.90
16515;DHT22;8370;52.556;7.970;2023-01-09T05:28:21;6.90;99.90
16515;DHT22;8370;52.556;7.970;2023-01-09T05:30:48;6.90;99.90
16515;DHT22;8370;52.556;7.970;2023-01-09T05:33:13;6.80;99.90
16515;DHT22;8370;52.556;7.970;2023-01-09T05:35:39;6.70;99.90
16515;DHT22;8370;52.556;7.970;2023-01-09T05:38:04;6.60;99.90
16515;DHT22;8370;52.556;7.970;2023-01-09T05:40:30;6.60;99.90
16515;DHT22;8370;52.556;7.970;2023-01-09T05:42:55;6.60;99.90
16515;DHT22;8370;52.556;7.970;2023-01-09T05:45:21;6.50;99.90
16515;DHT22;8370;52.556;7.970;2023-01-09T05:47:46;6.40;99.90
16515;DHT22;8370;52.556;7.970;2023-01-09T05:50:12;6.40;99.90
16515;DHT22;8370;52.556;7.970;2023-01-09T05:52:38;6.40;99.90
16515;DHT22;8370;52.556;7.970;2023-01-09T05:55:05;6.30;99.90
16515;DHT22;8370;52.556;7.970;2023-01-09T05:57:30;6.30;99.90
16515;DHT22;8370;52.556;7.970;2023-01-09T05:59:56;6.20;99.90
16515;DHT22;8370;52.556;7.970;2023-01-09T06:02:22;6.10;99.90
16515;DHT22;8370;52.556;7.970;2023-01-09T06:04:48;6.10;99.90
16515;DHT22;8370;52.556;7.970;2023-01-09T06:07:13;6.00;99.90
16515;DHT22;8370;52.556;7.970;2023-01-09T06:09:39;6.00;99.90
16515;DHT22;8370;52.556;7.970;2023-01-09T06:12:04;5.90;99.90
16515;DHT22;8370;52.556;7.970;2023-01-09T06:14:30;5.80;99.90
16515;DHT22;8370;52.556;7.970;2023-01-09T06:16:56;5.70;99.90
16515;DHT22;8370;52.556;7.970;2023-01-09T06:19:21;5.70;99.90
16515;DHT22;8370;52.556;7.970;2023-01-09T06:21:47;5.70;99.90
16515;DHT22;8370;52.556;7.970;2023-01-09T06:24:12;5.70;99.90
16515;DHT22;8370;52.556;7.970;2023-01-09T06:26:38;5.70;99.90
16515;DHT22;8370;52.556;7.970;2023-01-09T06:29:03;5.60;99.90
16515;DHT22;8370;52.556;7.970;2023-01-09T06:31:29;5.60;99.90
16515;DHT22;8370;52.556;7.970;2023-01-09T06:33:54;5.60;99.90
16515;DHT22;8370;52.556;7.970;2023-01-09T06:36:20;5.60;99.90
16515;DHT22;8370;52.556;7.970;2023-01-09T06:38:46;5.50;99.90
16515;DHT22;8370;52.556;7.970;2023-01-09T06:41:11;5.60;99.90
16515;DHT22;8370;52.556;7.970;2023-01-09T06:43:37;5.50;99.90
16515;DHT22;8370;52.556;7.970;2023-01-09T06:46:03;5.50;99.90
16515;DHT22;8370;52.556;7.970;2023-01-09T06:48:30;5.50;99.90
16515;DHT22;8370;52.556;7.970;2023-01-09T06:50:55;5.50;99.90
16515;DHT22;8370;52.556;7.970;2023-01-09T06:53:21;5.60;99.90
16515;DHT22;8370;52.556;7.970;2023-01-09T06:55:47;5.50;99.90
16515;DHT22;8370;52.556;7.970;2023-01-09T06:58:12;5.60;99.90
16515;DHT22;8370;52.556;7.970;2023-01-09T07:00:38;5.70;99.90
16515;DHT22;8370;52.556;7.970;2023-01-09T07:03:03;5.70;99.90
16515;DHT22;8370;52.556;7.970;2023-01-09T07:05:30;5.80;99.90
16515;DHT22;8370;52.556;7.970;2023-01-09T07:07:55;5.80;99.90
16515;DHT22;8370;52.556;7.970;2023-01-09T07:10:21;5.90;99.90
16515;DHT22;8370;52.556;7.970;2023-01-09T07:12:47;6.00;99.90
16515;DHT22;8370;52.556;7.970;2023-01-09T07:15:12;6.10;99.90
16515;DHT22;8370;52.556;7.970;2023-01-09T07:17:38;6.10;99.90
16515;DHT22;8370;52.556;7.970;2023-01-09T07:20:04;6.20;99.90
16515;DHT22;8370;52.556;7.970;2023-01-09T07:22:29;6.20;99.90
16515;DHT22;8370;52.556;7.970;2023-01-09T07:24:55;6.30;99.90
16515;DHT22;8370;52.556;7.970;2023-01-09T07:27:20;6.40;99.90
16515;DHT22;8370;52.556;7.970;2023-01-09T07:29:46;6.50;99.90
16515;DHT22;8370;52.556;7.970;2023-01-09T07:32:12;6.50;99.90
16515;DHT22;8370;52.556;7.970;2023-01-09T07:34:37;6.60;99.90
16515;DHT22;8370;52.556;7.970;2023-01-09T07:37:03;6.50;99.90
16515;DHT22;8370;52.556;7.970;2023-01-09T07:39:28;6.50;99.90
16515;DHT22;8370;52.556;7.970;2023-01-09T07:41:54;6.50;99.90
16515;DHT22;8370;52.556;7.970;2023-01-09T07:44:19;6.60;99.90
16515;DHT22;8370;52.556;7.970;2023-01-09T07:46:45;6.60;99.90
16515;DHT22;8370;52.556;7.970;2023-01-09T07:49:10;6.60;99.90
16515;DHT22;8370;52.556;7.970;2023-01-09T07:51:36;6.60;99.90
16515;DHT22;8370;52.556;7.970;2023-01-09T07:54:07;6.60;99.90
16515;DHT22;8370;52.556;7.970;2023-01-09T07:56:32;6.50;99.90
16515;DHT22;8370;52.556;7.970;2023-01-09T07:58:58;6.60;99.90
16515;DHT22;8370;52.556;7.970;2023-01-09T08:01:23;6.60;99.90
16515;DHT22;8370;52.556;7.970;2023-01-09T08:03:49;6.70;99.90
16515;DHT22;8370;52.556;7.970;2023-01-09T08:06:14;6.70;99.90
16515;DHT22;8370;52.556;7.970;2023-01-09T08:08:39;6.60;99.90
16515;DHT22;8370;52.556;7.970;2023-01-09T08:11:07;6.70;99.90
16515;DHT22;8370;52.556;7.970;2023-01-09T08:13:33;6.80;99.90
16515;DHT22;8370;52.556;7.970;2023-01-09T08:15:58;6.80;99.90
16515;DHT22;8370;52.556;7.970;2023-01-09T08:18:24;6.80;99.90
16515;DHT22;8370;52.556;7.970;2023-01-09T08:20:50;6.90;99.90
16515;DHT22;8370;52.556;7.970;2023-01-09T08:23:15;6.80;99.90
16515;DHT22;8370;52.556;7.970;2023-01-09T08:25:41;6.80;99.90
16515;DHT22;8370;52.556;7.970;2023-01-09T08:28:06;6.80;99.90
16515;DHT22;8370;52.556;7.970;2023-01-09T08:30:33;6.90;99.90
16515;DHT22;8370;52.556;7.970;2023-01-09T08:32:59;7.00;99.90
16515;DHT22;8370;52.556;7.970;2023-01-09T08:35:24;7.00;99.90
16515;DHT22;8370;52.556;7.970;2023-01-09T08:37:50;7.10;99.90
16515;DHT22;8370;52.556;7.970;2023-01-09T08:40:16;7.00;99.90
16515;DHT22;8370;52.556;7.970;2023-01-09T08:42:42;7.00;99.90
16515;DHT22;8370;52.556;7.970;2023-01-09T08:45:26;7.00;99.90
16515;DHT22;8370;52.556;7.970;2023-01-09T08:48:10;7.10;99.90
16515;DHT22;8370;52.556;7.970;2023-01-09T08:50:36;7.10;99.90
16515;DHT22;8370;52.556;7.970;2023-01-09T08:53:01;7.10;99.90
16515;DHT22;8370;52.556;7.970;2023-01-09T08:55:27;7.20;99.90
16515;DHT22;8370;52.556;7.970;2023-01-09T08:57:53;7.20;99.90
16515;DHT22;8370;52.556;7.970;2023-01-09T09:00:21;7.20;99.90
16515;DHT22;8370;52.556;7.970;2023-01-09T09:02:55;7.20;99.90
16515;DHT22;8370;52.556;7.970;2023-01-09T09:05:22;7.30;99.90
16515;DHT22;8370;52.556;7.970;2023-01-09T09:07:49;7.10;99.90
16515;DHT22;8370;52.556;7.970;2023-01-09T09:10:17;7.10;99.90
16515;DHT22;8370;52.556;7.970;2023-01-09T09:12:43;7.00;99.90
16515;DHT22;8370;52.556;7.970;2023-01-09T09:15:10;7.10;99.90
16515;DHT22;8370;52.556;7.970;2023-01-09T09:17:43;7.10;99.90
16515;DHT22;8370;52.556;7.970;2023-01-09T09:20:10;7.00;99.90
16515;DHT22;8370;52.556;7.970;2023-01-09T09:22:35;7.10;99.90
16515;DHT22;8370;52.556;7.970;2023-01-09T09:25:01;7.10;99.90
16515;DHT22;8370;52.556;7.970;2023-01-09T09:27:31;7.20;99.90
16515;DHT22;8370;52.556;7.970;2023-01-09T09:29:57;7.20;99.90
16515;DHT22;8370;52.556;7.970;2023-01-09T09:32:22;7.20;99.90
16515;DHT22;8370;52.556;7.970;2023-01-09T09:34:48;7.30;99.90
16515;DHT22;8370;52.556;7.970;2023-01-09T09:37:14;7.30;99.90
16515;DHT22;8370;52.556;7.970;2023-01-09T09:39:39;7.30;99.90
16515;DHT22;8370;52.556;7.970;2023-01-09T09:42:30;7.30;99.90
16515;DHT22;8370;52.556;7.970;2023-01-09T09:45:35;7.30;99.90
16515;DHT22;8370;52.556;7.970;2023-01-09T09:53:48;7.30;99.90
16515;DHT22;8370;52.556;7.970;2023-01-09T09:56:19;7.30;99.90
16515;DHT22;8370;52.556;7.970;2023-01-09T09:58:50;7.30;99.90
16515;DHT22;8370;52.556;7.970;2023-01-09T10:01:20;7.40;99.90
16515;DHT22;8370;52.556;7.970;2023-01-09T10:03:56;7.40;99.90
16515;DHT22;8370;52.556;7.970;2023-01-09T10:06:29;7.50;99.90
16515;DHT22;8370;52.556;7.970;2023-01-09T10:09:10;7.40;99.90
16515;DHT22;8370;52.556;7.970;2023-01-09T10:11:50;7.50;99.90
16515;DHT22;8370;52.556;7.970;2023-01-09T10:14:17;7.50;99.90
16515;DHT22;8370;52.556;7.970;2023-01-09T10:23:07;7.60;99.90
16515;DHT22;8370;52.556;7.970;2023-01-09T10:25:44;7.60;99.90
16515;DHT22;8370;52.556;7.970;2023-01-09T10:30:57;7.70;99.90
16515;DHT22;8370;52.556;7.970;2023-01-09T10:39:05;7.60;99.90
16515;DHT22;8370;52.556;7.970;2023-01-09T10:41:40;7.40;99.90
16515;DHT22;8370;52.556;7.970;2023-01-09T10:44:15;7.40;99.90
16515;DHT22;8370;52.556;7.970;2023-01-09T10:46:48;7.30;99.90
16515;DHT22;8370;52.556;7.970;2023-01-09T10:49:17;7.30;99.90
16515;DHT22;8370;52.556;7.970;2023-01-09T10:54:39;7.30;99.90
16515;DHT22;8370;52.556;7.970;2023-01-09T10:57:12;7.30;99.90
16515;DHT22;8370;52.556;7.970;2023-01-09T10:59:39;7.40;99.90
16515;DHT22;8370;52.556;7.970;2023-01-09T11:02:17;7.30;99.90
16515;DHT22;8370;52.556;7.970;2023-01-09T11:04:47;7.30;99.90
16515;DHT22;8370;52.556;7.970;2023-01-09T11:07:19;7.30;99.90
16515;DHT22;8370;52.556;7.970;2023-01-09T11:10:03;7.40;99.90
16515;DHT22;8370;52.556;7.970;2023-01-09T11:12:31;7.30;99.90
16515;DHT22;8370;52.556;7.970;2023-01-09T11:17:45;7.30;99.90
16515;DHT22;8370;52.556;7.970;2023-01-09T11:20:25;7.30;99.90
16515;DHT22;8370;52.556;7.970;2023-01-09T11:22:54;7.30;99.90
16515;DHT22;8370;52.556;7.970;2023-01-09T11:25:25;7.30;99.90
16515;DHT22;8370;52.556;7.970;2023-01-09T11:28:02;7.30;99.90
16515;DHT22;8370;52.556;7.970;2023-01-09T11:30:33;7.30;99.90
16515;DHT22;8370;52.556;7.970;2023-01-09T11:33:12;7.30;99.90
16515;DHT22;8370;52.556;7.970;2023-01-09T11:36:04;7.40;99.90
16515;DHT22;8370;52.556;7.970;2023-01-09T11:38:45;7.50;99.90
16515;DHT22;8370;52.556;7.970;2023-01-09T11:41:17;7.50;99.90
16515;DHT22;8370;52.556;7.970;2023-01-09T11:43:45;7.50;99.90
16515;DHT22;8370;52.556;7.970;2023-01-09T11:46:32;7.40;99.90
16515;DHT22;8370;52.556;7.970;2023-01-09T11:49:00;7.30;99.90
16515;DHT22;8370;52.556;7.970;2023-01-09T11:51:29;7.30;99.90
16515;DHT22;8370;52.556;7.970;2023-01-09T11:54:26;7.30;99.90
16515;DHT22;8370;52.556;7.970;2023-01-09T11:56:52;7.30;99.90
16515;DHT22;8370;52.556;7.970;2023-01-09T11:59:23;7.30;99.90
16515;DHT22;8370;52.556;7.970;2023-01-09T12:04:38;7.30;99.90
16515;DHT22;8370;52.556;7.970;2023-01-09T12:10:09;7.40;99.90
16515;DHT22;8370;52.556;7.970;2023-01-09T12:18:29;7.50;99.90
16515;DHT22;8370;52.556;7.970;2023-01-09T12:23:59;7.50;99.90
16515;DHT22;8370;52.556;7.970;2023-01-09T12:26:36;7.50;99.90
16515;DHT22;8370;52.556;7.970;2023-01-09T12:32:14;7.40;99.90
16515;DHT22;8370;52.556;7.970;2023-01-09T12:38:05;7.30;99.90
16515;DHT22;8370;52.556;7.970;2023-01-09T12:40:47;7.20;99.90
16515;DHT22;8370;52.556;7.970;2023-01-09T12:44:07;7.30;99.90
16515;DHT22;8370;52.556;7.970;2023-01-09T12:47:01;7.30;99.90
16515;DHT22;8370;52.556;7.970;2023-01-09T12:49:38;7.30;99.90
16515;DHT22;8370;52.556;7.970;2023-01-09T12:52:30;7.40;99.90
16515;DHT22;8370;52.556;7.970;2023-01-09T12:55:01;7.30;99.90
16515;DHT22;8370;52.556;7.970;2023-01-09T12:57:50;7.30;99.90
16515;DHT22;8370;52.556;7.970;2023-01-09T13:00:20;7.40;99.90
16515;DHT22;8370;52.556;7.970;2023-01-09T13:02:55;7.20;99.90
16515;DHT22;8370;52.556;7.970;2023-01-09T13:05:33;7.20;99.90
16515;DHT22;8370;52.556;7.970;2023-01-09T13:08:03;7.20;99.90
16515;DHT22;8370;52.556;7.970;2023-01-09T13:10:30;7.30;99.90
16515;DHT22;8370;52.556;7.970;2023-01-09T13:12:59;7.30;99.90
16515;DHT22;8370;52.556;7.970;2023-01-09T13:15:40;7.30;99.90
16515;DHT22;8370;52.556;7.970;2023-01-09T13:18:28;7.30;99.90
16515;DHT22;8370;52.556;7.970;2023-01-09T13:20:55;7.20;99.90
16515;DHT22;8370;52.556;7.970;2023-01-09T13:26:06;7.20;99.90
16515;DHT22;8370;52.556;7.970;2023-01-09T13:28:39;7.20;99.90
16515;DHT22;8370;52.556;7.970;2023-01-09T13:31:43;7.20;99.90
16515;DHT22;8370;52.556;7.970;2023-01-09T13:34:18;7.20;99.90
16515;DHT22;8370;52.556;7.970;2023-01-09T13:36:52;7.20;99.90
16515;DHT22;8370;52.556;7.970;2023-01-09T13:39:25;7.20;99.90
16515;DHT22;8370;52.556;7.970;2023-01-09T13:41:56;7.20;99.90
16515;DHT22;8370;52.556;7.970;2023-01-09T13:44:41;7.10;99.90
16515;DHT22;8370;52.556;7.970;2023-01-09T13:47:16;7.20;99.90
16515;DHT22;8370;52.556;7.970;2023-01-09T13:57:32;7.10;99.90
16515;DHT22;8370;52.556;7.970;2023-01-09T14:05:13;7.30;99.90
16515;DHT22;8370;52.556;7.970;2023-01-09T14:07:42;7.20;99.90
16515;DHT22;8370;52.556;7.970;2023-01-09T14:10:28;7.20;99.90
16515;DHT22;8370;52.556;7.970;2023-01-09T14:12:55;7.20;99.90
16515;DHT22;8370;52.556;7.970;2023-01-09T14:15:36;7.10;99.90
16515;DHT22;8370;52.556;7.970;2023-01-09T14:18:07;7.20;99.90
16515;DHT22;8370;52.556;7.970;2023-01-09T14:20:42;7.20;99.90
16515;DHT22;8370;52.556;7.970;2023-01-09T14:23:21;7.20;99.90
16515;DHT22;8370;52.556;7.970;2023-01-09T14:25:47;7.30;99.90
16515;DHT22;8370;52.556;7.970;2023-01-09T14:28:27;7.40;99.90
16515;DHT22;8370;52.556;7.970;2023-01-09T14:36:16;7.40;99.90
16515;DHT22;8370;52.556;7.970;2023-01-09T14:38:48;7.40;99.90
16515;DHT22;8370;52.556;7.970;2023-01-09T14:41:35;7.50;99.90
16515;DHT22;8370;52.556;7.970;2023-01-09T14:44:30;7.40;99.90
16515;DHT22;8370;52.556;7.970;2023-01-09T14:48:19;7.30;99.90
16515;DHT22;8370;52.556;7.970;2023-01-09T14:53:32;7.40;99.90
16515;DHT22;8370;52.556;7.970;2023-01-09T14:56:03;7.30;99.90
16515;DHT22;8370;52.556;7.970;2023-01-09T14:58:34;7.20;99.90
16515;DHT22;8370;52.556;7.970;2023-01-09T15:01:04;7.20;99.90
16515;DHT22;8370;52.556;7.970;2023-01-09T15:03:49;7.20;99.90
16515;DHT22;8370;52.556;7.970;2023-01-09T15:06:21;7.10;99.90
16515;DHT22;8370;52.556;7.970;2023-01-09T15:11:38;7.30;99.90
16515;DHT22;8370;52.556;7.970;2023-01-09T15:14:04;7.30;99.90
16515;DHT22;8370;52.556;7.970;2023-01-09T15:16:31;7.30;99.90
16515;DHT22;8370;52.556;7.970;2023-01-09T15:18:59;7.20;99.90
16515;DHT22;8370;52.556;7.970;2023-01-09T15:21:28;7.20;99.90
16515;DHT22;8370;52.556;7.970;2023-01-09T15:24:31;7.20;99.90
16515;DHT22;8370;52.556;7.970;2023-01-09T15:26:58;7.00;99.90
16515;DHT22;8370;52.556;7.970;2023-01-09T15:29:25;7.00;99.90
16515;DHT22;8370;52.556;7.970;2023-01-09T15:31:59;7.00;99.90
16515;DHT22;8370;52.556;7.970;2023-01-09T15:34:27;7.00;99.90
16515;DHT22;8370;52.556;7.970;2023-01-09T15:36:54;6.90;99.90
16515;DHT22;8370;52.556;7.970;2023-01-09T15:39:34;6.90;99.90
16515;DHT22;8370;52.556;7.970;2023-01-09T15:42:01;7.00;99.90
16515;DHT22;8370;52.556;7.970;2023-01-09T15:44:47;6.90;99.90
16515;DHT22;8370;52.556;7.970;2023-01-09T15:47:22;6.90;99.90
16515;DHT22;8370;52.556;7.970;2023-01-09T15:49:49;6.90;99.90
16515;DHT22;8370;52.556;7.970;2023-01-09T15:52:15;6.90;99.90
16515;DHT22;8370;52.556;7.970;2023-01-09T15:54:44;7.00;99.90
16515;DHT22;8370;52.556;7.970;2023-01-09T15:59:52;6.90;99.90
16515;DHT22;8370;52.556;7.970;2023-01-09T16:02:19;6.90;99.90
16515;DHT22;8370;52.556;7.970;2023-01-09T16:05:15;6.90;99.90
16515;DHT22;8370;52.556;7.970;2023-01-09T16:07:47;6.90;99.90
16515;DHT22;8370;52.556;7.970;2023-01-09T16:10:29;6.80;99.90
16515;DHT22;8370;52.556;7.970;2023-01-09T16:12:56;6.80;99.90
16515;DHT22;8370;52.556;7.970;2023-01-09T16:15:22;6.80;99.90
16515;DHT22;8370;52.556;7.970;2023-01-09T16:18:31;6.70;99.90
16515;DHT22;8370;52.556;7.970;2023-01-09T16:21:19;6.80;99.90
16515;DHT22;8370;52.556;7.970;2023-01-09T16:26:33;6.80;99.90
16515;DHT22;8370;52.556;7.970;2023-01-09T16:29:26;6.70;99.90
16515;DHT22;8370;52.556;7.970;2023-01-09T16:31:58;6.70;99.90
16515;DHT22;8370;52.556;7.970;2023-01-09T16:34:23;6.70;99.90
16515;DHT22;8370;52.556;7.970;2023-01-09T16:36:49;6.80;99.90
16515;DHT22;8370;52.556;7.970;2023-01-09T16:39:15;6.80;99.90
16515;DHT22;8370;52.556;7.970;2023-01-09T16:41:44;6.80;99.90
16515;DHT22;8370;52.556;7.970;2023-01-09T16:44:27;6.90;99.90
16515;DHT22;8370;52.556;7.970;2023-01-09T16:46:53;6.80;99.90
16515;DHT22;8370;52.556;7.970;2023-01-09T16:49:20;6.80;99.90
16515;DHT22;8370;52.556;7.970;2023-01-09T16:51:48;6.90;99.90
16515;DHT22;8370;52.556;7.970;2023-01-09T16:54:15;7.00;99.90
16515;DHT22;8370;52.556;7.970;2023-01-09T16:56:43;7.00;99.90
16515;DHT22;8370;52.556;7.970;2023-01-09T16:59:13;7.00;99.90
16515;DHT22;8370;52.556;7.970;2023-01-09T17:01:40;7.10;99.90
16515;DHT22;8370;52.556;7.970;2023-01-09T17:04:12;7.10;99.90
16515;DHT22;8370;52.556;7.970;2023-01-09T17:06:38;7.20;99.90
16515;DHT22;8370;52.556;7.970;2023-01-09T17:09:04;7.10;99.90
16515;DHT22;8370;52.556;7.970;2023-01-09T17:11:29;7.10;99.90
16515;DHT22;8370;52.556;7.970;2023-01-09T17:14:01;7.10;99.90
16515;DHT22;8370;52.556;7.970;2023-01-09T17:16:28;7.10;99.90
16515;DHT22;8370;52.556;7.970;2023-01-09T17:18:54;7.10;99.90
16515;DHT22;8370;52.556;7.970;2023-01-09T17:21:21;7.10;99.90
16515;DHT22;8370;52.556;7.970;2023-01-09T17:23:48;7.10;99.90
16515;DHT22;8370;52.556;7.970;2023-01-09T17:26:34;7.10;99.90
16515;DHT22;8370;52.556;7.970;2023-01-09T17:29:18;7.20;99.90
16515;DHT22;8370;52.556;7.970;2023-01-09T17:31:44;7.20;99.90
16515;DHT22;8370;52.556;7.970;2023-01-09T17:34:09;7.30;99.90
16515;DHT22;8370;52.556;7.970;2023-01-09T17:36:35;7.30;99.90
16515;DHT22;8370;52.556;7.970;2023-01-09T17:39:01;7.20;99.90
16515;DHT22;8370;52.556;7.970;2023-01-09T17:41:28;7.40;99.90
16515;DHT22;8370;52.556;7.970;2023-01-09T17:43:55;7.30;99.90
16515;DHT22;8370;52.556;7.970;2023-01-09T17:46:33;7.40;99.90
16515;DHT22;8370;52.556;7.970;2023-01-09T17:49:00;7.30;99.90
16515;DHT22;8370;52.556;7.970;2023-01-09T17:51:26;7.20;99.90
16515;DHT22;8370;52.556;7.970;2023-01-09T17:53:52;7.20;99.90
16515;DHT22;8370;52.556;7.970;2023-01-09T17:56:26;7.30;99.90
16515;DHT22;8370;52.556;7.970;2023-01-09T17:58:52;7.20;99.90
16515;DHT22;8370;52.556;7.970;2023-01-09T18:01:18;7.20;99.90
16515;DHT22;8370;52.556;7.970;2023-01-09T18:03:45;7.20;99.90